Time;durP1;ratioP1;P1;durP2;ratioP2;P2;SDS_P1;SDS_P2;PMS_P1;PMS_P2;Temp;Humidity;BMP_temperature;BMP_pressure;BME280_temperature;BME280_humidity;BME280_pressure;Samples;Min_cycle;Max_cycle;Signal;HPM_P1;HPM_P2
2022/10/17 00:02:24;;;;;;;1.98;1.40;;;19.80;61.10;;;;;;4966571;28;20074;-68
2022/10/17 00:04:50;;;;;;;1.60;1.50;;;19.70;61.10;;;;;;4966256;28;20015;-67
2022/10/17 00:07:16;;;;;;;1.42;1.33;;;19.70;61.10;;;;;;4981146;28;20054;-68
2022/10/17 00:09:43;;;;;;;1.67;1.52;;;19.70;61.10;;;;;;4966158;29;20023;-67
2022/10/17 00:12:09;;;;;;;1.75;1.52;;;19.70;61.10;;;;;;4966135;28;20251;-67
2022/10/17 00:14:38;;;;;;;1.40;1.20;;;19.70;61.10;;;;;;4966087;29;20025;-68
2022/10/17 00:17:05;;;;;;;1.60;1.50;;;19.70;61.10;;;;;;4965877;28;20243;-68
2022/10/17 00:19:30;;;;;;;1.48;1.38;;;19.70;61.00;;;;;;4965978;29;20019;-68
2022/10/17 00:21:56;;;;;;;1.58;1.48;;;19.70;61.10;;;;;;4965966;29;20081;-68
2022/10/17 00:24:22;;;;;;;2.03;1.38;;;19.70;61.10;;;;;;4965896;29;20081;-67
2022/10/17 00:26:48;;;;;;;1.48;1.38;;;19.70;61.00;;;;;;4965865;29;20244;-67
2022/10/17 00:29:13;;;;;;;1.50;1.40;;;19.70;61.10;;;;;;4965820;29;20030;-67
2022/10/17 00:31:39;;;;;;;1.30;1.20;;;19.70;61.10;;;;;;4965827;28;20109;-68
2022/10/17 00:34:05;;;;;;;1.45;1.35;;;19.70;61.10;;;;;;4965856;28;20027;-68
2022/10/17 00:36:30;;;;;;;1.30;1.20;;;19.70;61.10;;;;;;4965599;29;20043;-67
2022/10/17 00:38:58;;;;;;;1.60;1.50;;;19.60;61.00;;;;;;4965614;29;20214;-67
2022/10/17 00:41:27;;;;;;;1.70;1.60;;;19.70;61.00;;;;;;4965658;29;20026;-67
2022/10/17 00:43:58;;;;;;;1.48;1.33;;;19.70;61.00;;;;;;4965623;29;20019;-67
2022/10/17 00:46:29;;;;;;;2.03;1.58;;;19.70;61.10;;;;;;4965559;29;20078;-66
2022/10/17 00:48:57;;;;;;;1.70;1.60;;;19.60;61.00;;;;;;4965611;28;20019;-68
2022/10/17 00:51:52;;;;;;;1.55;1.45;;;19.60;61.00;;;;;;4965514;29;20026;-68
2022/10/17 00:54:23;;;;;;;1.67;1.58;;;19.60;61.00;;;;;;4965374;28;20059;-68
2022/10/17 00:56:50;;;;;;;1.73;1.63;;;19.60;61.10;;;;;;4965467;29;20015;-67
2022/10/17 00:59:18;;;;;;;1.77;1.65;;;19.60;61.00;;;;;;4965393;29;20030;-67
2022/10/17 01:01:52;;;;;;;2.17;1.20;;;19.60;61.00;;;;;;4965381;29;20074;-68
2022/10/17 01:04:18;;;;;;;1.30;1.20;;;19.70;61.10;;;;;;4965387;29;20024;-67
2022/10/17 01:06:44;;;;;;;2.22;1.70;;;19.60;61.10;;;;;;4965539;29;20021;-68
2022/10/17 01:09:10;;;;;;;1.83;1.38;;;19.70;61.10;;;;;;4965092;28;20031;-68
2022/10/17 01:12:02;;;;;;;1.60;1.50;;;19.60;61.10;;;;;;4965242;29;20023;-67
2022/10/17 01:14:56;;;;;;;1.50;1.40;;;19.60;61.10;;;;;;4965264;29;20030;-68
2022/10/17 01:17:34;;;;;;;1.55;1.45;;;19.60;61.10;;;;;;4965206;29;20050;-67
2022/10/17 01:20:21;;;;;;;1.42;1.33;;;19.60;61.10;;;;;;4965234;29;20015;-68
2022/10/17 01:22:56;;;;;;;1.47;1.37;;;19.60;61.10;;;;;;4965238;29;20132;-68
2022/10/17 01:26:15;;;;;;;1.30;1.20;;;19.70;61.10;;;;;;4965133;29;20561;-67
2022/10/17 01:29:16;;;;;;;1.40;1.30;;;19.60;61.10;;;;;;4965169;28;20019;-67
2022/10/17 01:31:57;;;;;;;1.52;1.42;;;19.60;61.10;;;;;;4965135;29;20030;-68
2022/10/17 01:34:47;;;;;;;1.65;1.52;;;19.60;61.10;;;;;;4964907;29;20023;-68
2022/10/17 01:37:27;;;;;;;1.80;1.70;;;19.60;61.10;;;;;;4965010;29;20038;-68
2022/10/17 01:40:20;;;;;;;1.60;1.50;;;19.60;61.10;;;;;;4965057;29;20026;-67
2022/10/17 01:42:54;;;;;;;1.92;1.60;;;19.60;61.80;;;;;;4965035;28;20246;-67
2022/10/17 01:45:39;;;;;;;1.50;1.40;;;19.60;61.10;;;;;;4965018;29;20023;-67
2022/10/17 01:48:19;;;;;;;1.70;1.60;;;19.60;61.10;;;;;;4964969;29;20042;-68
2022/10/17 01:50:53;;;;;;;2.28;2.03;;;19.60;61.10;;;;;;4964945;29;20049;-68
2022/10/17 01:53:27;;;;;;;1.45;1.35;;;19.60;61.10;;;;;;4964926;29;20090;-67
2022/10/17 01:55:56;;;;;;;1.40;1.30;;;19.60;61.10;;;;;;4964922;29;20031;-68
2022/10/17 01:58:25;;;;;;;;;;;19.60;61.10;;;;;;4965232;28;20038;-67
2022/10/17 02:00:53;;;;;;;1.40;1.30;;;19.60;61.10;;;;;;4964842;28;19945;-67
2022/10/17 02:03:20;;;;;;;1.47;1.37;;;19.60;61.10;;;;;;4964851;29;20023;-68
2022/10/17 02:05:45;;;;;;;1.85;1.67;;;19.60;61.10;;;;;;4964773;29;20016;-67
2022/10/17 02:08:12;;;;;;;1.42;1.33;;;19.60;61.10;;;;;;4964766;29;20333;-68
2022/10/17 02:10:54;;;;;;;1.50;1.40;;;19.60;61.10;;;;;;4964774;29;20023;-67
2022/10/17 02:13:41;;;;;;;1.83;1.70;;;19.60;61.10;;;;;;4964795;28;20030;-67
2022/10/17 02:16:32;;;;;;;1.58;1.48;;;19.60;61.10;;;;;;4964803;28;20023;-68
2022/10/17 02:19:12;;;;;;;2.08;1.75;;;19.50;61.10;;;;;;4964577;28;20023;-69
2022/10/17 02:22:03;;;;;;;1.48;1.38;;;19.60;61.10;;;;;;4967695;29;20019;-68
2022/10/17 02:24:36;;;;;;;1.90;1.50;;;19.50;61.10;;;;;;4968186;28;20019;-67
2022/10/17 02:27:22;;;;;;;1.42;1.30;;;19.50;61.10;;;;;;4968115;29;20015;-67
2022/10/17 02:29:59;;;;;;;1.27;1.17;;;19.50;61.10;;;;;;4968061;29;20058;-67
2022/10/17 02:32:45;;;;;;;1.40;1.30;;;19.50;61.10;;;;;;4968011;29;20026;-68
2022/10/17 02:35:13;;;;;;;1.30;1.20;;;19.50;61.10;;;;;;4967811;29;20038;-67
2022/10/17 02:37:40;;;;;;;1.75;1.65;;;19.50;61.10;;;;;;4966683;29;20050;-67
2022/10/17 02:40:09;;;;;;;1.65;1.55;;;19.50;61.10;;;;;;4967844;29;20038;-67
2022/10/17 02:42:35;;;;;;;1.52;1.42;;;19.50;61.10;;;;;;4967785;29;20011;-68
2022/10/17 02:45:02;;;;;;;1.40;1.30;;;19.50;61.10;;;;;;4967770;29;20038;-69
2022/10/17 02:47:40;;;;;;;1.67;1.58;;;19.50;61.10;;;;;;4967701;29;20019;-69
2022/10/17 02:50:06;;;;;;;1.63;1.52;;;19.50;61.10;;;;;;4967735;29;20023;-69
2022/10/17 02:53:10;;;;;;;1.77;1.67;;;19.50;61.10;;;;;;4967619;29;20027;-68
2022/10/17 02:55:44;;;;;;;1.45;1.35;;;19.50;61.20;;;;;;4968159;28;20035;-69
2022/10/17 02:58:19;;;;;;;1.60;1.50;;;19.50;61.20;;;;;;4967503;29;20139;-68
2022/10/17 03:00:45;;;;;;;1.40;1.30;;;19.50;61.80;;;;;;4967498;29;20079;-67
2022/10/17 03:03:23;;;;;;;1.42;1.33;;;19.50;61.20;;;;;;4967441;29;20023;-68
2022/10/17 03:05:49;;;;;;;3.35;1.58;;;19.50;61.20;;;;;;4967430;29;20019;-68
2022/10/17 03:08:14;;;;;;;1.50;1.40;;;19.50;61.10;;;;;;4967576;29;20027;-67
2022/10/17 03:10:40;;;;;;;2.35;1.80;;;19.50;61.20;;;;;;4967302;29;20051;-68
2022/10/17 03:13:06;;;;;;;1.40;1.30;;;19.50;61.20;;;;;;4967242;29;20318;-69
2022/10/17 03:15:31;;;;;;;1.77;1.63;;;19.50;61.20;;;;;;4967192;29;20023;-68
2022/10/17 03:17:57;;;;;;;1.50;1.40;;;19.50;61.20;;;;;;4965989;28;20038;-69
2022/10/17 03:20:23;;;;;;;1.58;1.48;;;19.50;61.20;;;;;;4967140;29;20015;-69
2022/10/17 03:22:48;;;;;;;1.50;1.40;;;19.50;61.20;;;;;;4967096;29;20082;-68
2022/10/17 03:25:14;;;;;;;1.42;1.33;;;19.50;61.20;;;;;;4967025;29;20078;-67
2022/10/17 03:27:40;;;;;;;1.45;1.30;;;19.40;61.10;;;;;;4966967;29;20381;-68
2022/10/17 03:30:06;;;;;;;1.50;1.40;;;19.40;61.20;;;;;;4966937;29;20027;-67
2022/10/17 03:32:33;;;;;;;1.50;1.40;;;19.40;61.10;;;;;;4966825;28;20082;-67
2022/10/17 03:34:58;;;;;;;1.67;1.58;;;19.40;61.10;;;;;;4966660;29;20231;-68
2022/10/17 03:37:24;;;;;;;1.48;1.38;;;19.40;61.20;;;;;;4966706;29;20035;-67
2022/10/17 03:39:50;;;;;;;1.30;1.20;;;19.40;61.20;;;;;;4966764;29;20096;-68
2022/10/17 03:42:16;;;;;;;1.65;1.55;;;19.40;61.20;;;;;;4966689;29;20083;-67
2022/10/17 03:44:41;;;;;;;1.30;1.20;;;19.40;61.20;;;;;;4966663;29;20075;-68
2022/10/17 03:47:07;;;;;;;1.63;1.52;;;19.40;61.20;;;;;;4966611;29;20219;-67
2022/10/17 03:49:33;;;;;;;1.50;1.40;;;19.40;61.10;;;;;;4966805;29;20030;-68
2022/10/17 03:51:59;;;;;;;1.60;1.50;;;19.40;61.20;;;;;;4966538;29;20311;-68
2022/10/17 03:54:24;;;;;;;1.50;1.40;;;19.40;61.10;;;;;;4966497;29;20333;-67
2022/10/17 03:56:50;;;;;;;1.30;1.20;;;19.40;61.20;;;;;;4966420;29;20022;-68
2022/10/17 03:59:16;;;;;;;1.40;1.30;;;19.40;61.20;;;;;;4966332;29;20078;-67
2022/10/17 04:01:42;;;;;;;1.73;1.48;;;19.40;61.20;;;;;;4966303;28;20026;-67
2022/10/17 04:04:08;;;;;;;1.40;1.30;;;19.40;61.20;;;;;;4966285;29;20071;-67
2022/10/17 04:06:34;;;;;;;1.52;1.42;;;19.40;61.20;;;;;;4966221;29;20027;-67
2022/10/17 04:09:00;;;;;;;1.75;1.30;;;19.40;61.20;;;;;;4966162;29;20033;-68
2022/10/17 04:11:26;;;;;;;1.65;1.55;;;19.40;61.20;;;;;;4966159;29;20042;-67
2022/10/17 04:13:54;;;;;;;1.50;1.40;;;19.40;61.20;;;;;;4966129;29;20066;-67
2022/10/17 04:16:20;;;;;;;1.50;1.40;;;19.40;61.20;;;;;;4966119;29;20022;-68
2022/10/17 04:18:46;;;;;;;1.83;1.55;;;19.40;61.20;;;;;;4965960;29;20074;-68
2022/10/17 04:21:12;;;;;;;1.67;1.55;;;19.40;61.20;;;;;;4966008;29;20034;-68
2022/10/17 04:23:38;;;;;;;1.98;1.77;;;19.40;61.20;;;;;;4965980;29;20359;-68
2022/10/17 04:26:05;;;;;;;1.30;1.20;;;19.40;61.20;;;;;;4965926;29;20019;-68
2022/10/17 04:28:31;;;;;;;1.90;1.63;;;19.40;61.20;;;;;;4965880;29;20047;-67
2022/10/17 04:31:03;;;;;;;1.95;1.30;;;19.40;61.20;;;;;;4965873;29;20075;-68
2022/10/17 04:33:30;;;;;;;2.28;1.85;;;19.40;61.20;;;;;;4965766;29;20027;-67
2022/10/17 04:36:01;;;;;;;1.35;1.25;;;19.40;61.20;;;;;;4965602;29;20043;-67
2022/10/17 04:38:28;;;;;;;1.50;1.40;;;19.40;61.20;;;;;;4965674;28;20031;-68
2022/10/17 04:41:04;;;;;;;1.33;1.20;;;19.40;61.20;;;;;;4965653;29;20045;-67
2022/10/17 04:43:31;;;;;;;1.80;1.67;;;19.40;61.20;;;;;;4965272;28;20019;-67
2022/10/17 04:45:58;;;;;;;1.70;1.60;;;19.40;61.20;;;;;;4965649;28;20026;-67
2022/10/17 04:48:23;;;;;;;1.92;1.50;;;19.40;61.20;;;;;;4965608;29;20018;-68
2022/10/17 04:51:04;;;;;;;1.50;1.40;;;19.30;61.20;;;;;;4965588;29;20370;-68
2022/10/17 04:53:34;;;;;;;1.50;1.40;;;19.30;61.20;;;;;;4964453;29;20085;-68
2022/10/17 04:56:01;;;;;;;1.58;1.35;;;19.30;61.20;;;;;;4965503;28;20097;-68
2022/10/17 04:58:30;;;;;;;1.30;1.20;;;19.30;61.20;;;;;;4965389;29;20023;-67
2022/10/17 05:00:55;;;;;;;1.63;1.52;;;19.30;61.20;;;;;;4965448;29;20046;-68
2022/10/17 05:03:21;;;;;;;1.58;1.48;;;19.40;61.20;;;;;;4965406;29;20023;-68
2022/10/17 05:05:47;;;;;;;1.42;1.33;;;19.30;61.20;;;;;;4965371;29;20015;-67
2022/10/17 05:08:12;;;;;;;1.55;1.45;;;19.30;61.20;;;;;;4965329;29;20030;-67
2022/10/17 05:10:41;;;;;;;1.58;1.42;;;19.30;61.20;;;;;;4965291;29;20023;-67
2022/10/17 05:13:07;;;;;;;1.42;1.25;;;19.30;61.10;;;;;;4965315;29;20027;-68
2022/10/17 05:15:33;;;;;;;1.58;1.48;;;19.30;61.20;;;;;;4965274;29;20377;-67
2022/10/17 05:17:59;;;;;;;1.40;1.30;;;19.30;61.10;;;;;;4965196;28;20033;-68
2022/10/17 05:20:25;;;;;;;1.48;1.38;;;19.30;61.20;;;;;;4965241;29;20286;-68
2022/10/17 05:22:51;;;;;;;1.55;1.38;;;19.30;61.10;;;;;;4965213;29;20079;-67
2022/10/17 05:25:18;;;;;;;1.40;1.20;;;19.30;61.20;;;;;;4965191;29;20023;-67
2022/10/17 05:27:43;;;;;;;1.60;1.50;;;19.30;61.10;;;;;;4965190;28;20023;-67
2022/10/17 05:30:10;;;;;;;1.73;1.40;;;19.40;61.20;;;;;;4965117;29;20192;-68
2022/10/17 05:32:35;;;;;;;1.33;1.23;;;19.30;61.20;;;;;;4965133;29;20039;-68
2022/10/17 05:35:03;;;;;;;1.50;1.40;;;19.30;61.10;;;;;;4964955;29;20076;-68
2022/10/17 05:37:30;;;;;;;1.77;1.60;;;19.30;61.20;;;;;;4965027;28;20027;-68
2022/10/17 05:39:56;;;;;;;1.48;1.38;;;19.30;61.20;;;;;;4965022;29;20019;-67
2022/10/17 05:42:22;;;;;;;1.92;1.67;;;19.30;61.10;;;;;;4965018;29;20023;-68
2022/10/17 05:44:47;;;;;;;1.63;1.35;;;19.30;61.10;;;;;;4965030;29;20023;-67
2022/10/17 05:47:13;;;;;;;1.58;1.48;;;19.30;61.10;;;;;;4965040;28;20019;-67
2022/10/17 05:49:39;;;;;;;1.42;1.30;;;19.30;61.20;;;;;;4964992;28;20024;-68
2022/10/17 05:52:05;;;;;;;1.58;1.40;;;19.30;61.10;;;;;;4964949;29;20020;-68
2022/10/17 05:54:30;;;;;;;2.35;2.00;;;19.30;61.10;;;;;;4964955;28;20303;-67
2022/10/17 05:56:56;;;;;;;1.50;1.40;;;19.30;61.10;;;;;;4968614;29;20019;-67
2022/10/17 05:59:24;;;;;;;1.70;1.60;;;19.30;61.10;;;;;;4968533;29;20030;-67
2022/10/17 06:01:50;;;;;;;1.70;1.60;;;19.30;61.10;;;;;;4968574;29;20011;-66
2022/10/17 06:04:16;;;;;;;1.75;1.40;;;19.30;61.00;;;;;;4968509;29;20210;-67
2022/10/17 06:06:42;;;;;;;1.77;1.45;;;19.30;61.10;;;;;;4968494;29;20023;-68
2022/10/17 06:09:08;;;;;;;1.60;1.50;;;19.30;61.10;;;;;;4968478;28;20373;-67
2022/10/17 06:11:34;;;;;;;2.10;1.80;;;19.30;61.00;;;;;;4968423;28;20045;-69
2022/10/17 06:14:01;;;;;;;1.55;1.35;;;19.30;61.00;;;;;;4968382;29;20027;-67
2022/10/17 06:16:27;;;;;;;1.73;1.60;;;19.30;61.10;;;;;;4968324;29;20049;-67
2022/10/17 06:18:53;;;;;;;1.85;1.40;;;19.30;61.10;;;;;;4968219;29;20023;-67
2022/10/17 06:21:23;;;;;;;1.65;1.27;;;19.30;61.10;;;;;;4968241;29;20015;-68
2022/10/17 06:23:49;;;;;;;1.40;1.30;;;19.30;61.10;;;;;;4968215;29;20090;-67
2022/10/17 06:26:15;;;;;;;1.67;1.58;;;19.30;61.00;;;;;;4968151;29;20476;-67
2022/10/17 06:28:41;;;;;;;1.60;1.50;;;19.30;61.10;;;;;;4968087;29;20023;-68
2022/10/17 06:31:10;;;;;;;1.65;1.55;;;19.30;61.00;;;;;;4968055;29;20029;-67
2022/10/17 06:33:36;;;;;;;1.90;1.70;;;19.30;61.00;;;;;;4967988;29;20045;-67
2022/10/17 06:36:03;;;;;;;2.13;1.80;;;19.30;61.00;;;;;;4967843;28;20047;-68
2022/10/17 06:38:29;;;;;;;1.48;1.38;;;19.30;61.00;;;;;;4967854;29;20047;-68
2022/10/17 06:41:07;;;;;;;1.35;1.25;;;19.30;61.00;;;;;;4967873;29;20020;-67
2022/10/17 06:43:34;;;;;;;1.70;1.38;;;19.30;61.00;;;;;;4967889;28;20074;-68
2022/10/17 06:45:59;;;;;;;2.10;1.75;;;19.30;61.00;;;;;;4967753;29;20019;-67
2022/10/17 06:48:25;;;;;;;1.30;1.20;;;19.30;61.00;;;;;;4967706;29;20039;-68
2022/10/17 06:50:51;;;;;;;1.40;1.30;;;19.30;60.90;;;;;;4967678;29;20218;-67
2022/10/17 06:53:16;;;;;;;1.58;1.45;;;19.30;60.90;;;;;;4967645;29;20086;-68
2022/10/17 06:55:42;;;;;;;1.48;1.15;;;19.40;61.00;;;;;;4967605;29;20319;-67
2022/10/17 06:58:08;;;;;;;1.35;1.25;;;19.40;60.90;;;;;;4967492;29;20023;-67
2022/10/17 07:00:34;;;;;;;1.60;1.50;;;19.40;60.90;;;;;;4967484;29;20047;-67
2022/10/17 07:02:59;;;;;;;1.50;1.40;;;19.40;60.80;;;;;;4982481;28;20065;-68
2022/10/17 07:05:25;;;;;;;1.60;1.50;;;19.40;60.80;;;;;;4967228;28;20307;-67
2022/10/17 07:07:51;;;;;;;1.58;1.45;;;19.40;60.80;;;;;;4967231;29;20027;-69
2022/10/17 07:10:16;;;;;;;1.33;1.23;;;19.40;60.80;;;;;;4967326;29;20070;-68
2022/10/17 07:12:44;;;;;;;1.63;1.52;;;19.40;60.80;;;;;;4967284;29;20027;-67
2022/10/17 07:15:10;;;;;;;1.60;1.50;;;19.40;60.80;;;;;;4967237;28;20023;-68
2022/10/17 07:17:36;;;;;;;1.40;1.30;;;19.40;60.80;;;;;;4967102;29;20386;-68
2022/10/17 07:20:02;;;;;;;1.30;1.20;;;19.40;60.70;;;;;;4967144;29;20023;-66
2022/10/17 07:22:27;;;;;;;1.50;1.40;;;19.40;60.70;;;;;;4967107;29;20019;-68
2022/10/17 07:24:53;;;;;;;1.85;1.73;;;19.50;60.70;;;;;;4967070;29;20057;-68
2022/10/17 07:27:19;;;;;;;1.70;1.60;;;19.50;60.60;;;;;;4967056;29;20037;-67
2022/10/17 07:29:44;;;;;;;1.52;1.30;;;19.50;60.50;;;;;;4966947;29;20016;-68
2022/10/17 07:32:10;;;;;;;1.50;1.40;;;19.50;60.40;;;;;;4966920;29;20019;-67
2022/10/17 07:34:36;;;;;;;1.52;1.40;;;19.60;60.50;;;;;;4966706;29;20235;-67
2022/10/17 07:37:02;;;;;;;1.50;1.40;;;19.60;60.50;;;;;;4966875;29;20023;-67
2022/10/17 07:39:28;;;;;;;1.55;1.45;;;19.60;60.40;;;;;;4966800;29;20196;-68
2022/10/17 07:41:54;;;;;;;1.55;1.40;;;19.60;60.40;;;;;;4966747;28;20218;-67
2022/10/17 07:44:20;;;;;;;1.33;1.23;;;19.60;60.40;;;;;;4966716;29;20046;-67
2022/10/17 07:46:45;;;;;;;1.30;1.20;;;19.60;60.40;;;;;;4966649;29;20218;-68
2022/10/17 07:49:11;;;;;;;2.38;1.65;;;19.60;60.30;;;;;;4966604;29;20022;-69
2022/10/17 07:51:37;;;;;;;1.45;1.20;;;19.60;60.30;;;;;;4966552;29;20430;-68
2022/10/17 07:54:05;;;;;;;1.40;1.30;;;19.60;60.30;;;;;;4966549;29;20027;-67
2022/10/17 07:56:31;;;;;;;2.05;1.65;;;19.60;60.30;;;;;;4966481;29;20177;-68
2022/10/17 07:58:57;;;;;;;1.55;1.45;;;19.60;60.30;;;;;;4966382;29;20038;-68
2022/10/17 08:01:24;;;;;;;1.63;1.52;;;19.60;60.30;;;;;;4966406;29;20381;-68
2022/10/17 08:03:50;;;;;;;1.98;1.73;;;19.60;60.40;;;;;;4966395;29;20015;-66
2022/10/17 08:06:17;;;;;;;1.48;1.38;;;19.60;60.40;;;;;;4966287;29;20026;-67
2022/10/17 08:08:43;;;;;;;1.70;1.60;;;19.60;60.40;;;;;;4966223;29;20386;-67
2022/10/17 08:11:11;;;;;;;1.65;1.30;;;19.60;60.40;;;;;;4966231;29;20027;-68
2022/10/17 08:13:37;;;;;;;1.37;1.27;;;19.60;60.40;;;;;;4966205;29;20030;-67
2022/10/17 08:16:06;;;;;;;1.65;1.55;;;19.60;60.40;;;;;;4966131;29;20253;-68
2022/10/17 08:18:32;;;;;;;1.50;1.40;;;19.60;60.40;;;;;;4965247;28;20390;-67
2022/10/17 08:21:05;;;;;;;1.67;1.40;;;19.60;60.50;;;;;;4966036;29;20215;-68
2022/10/17 08:23:30;;;;;;;1.83;1.60;;;19.60;60.40;;;;;;4965977;29;20015;-68
2022/10/17 08:26:00;;;;;;;1.33;1.23;;;19.60;60.50;;;;;;4965936;29;20023;-67
2022/10/17 08:28:26;;;;;;;1.80;1.55;;;19.60;60.50;;;;;;4965915;28;20314;-67
2022/10/17 08:30:52;;;;;;;1.80;1.70;;;19.60;60.50;;;;;;4965891;29;20034;-67
2022/10/17 08:33:17;;;;;;;1.65;1.40;;;19.60;60.60;;;;;;4965826;29;20016;-67
2022/10/17 08:35:43;;;;;;;1.40;1.30;;;19.70;60.60;;;;;;4965560;29;20331;-67
2022/10/17 08:38:09;;;;;;;2.70;1.65;;;19.60;60.60;;;;;;4965661;29;20035;-68
2022/10/17 08:40:35;;;;;;;1.83;1.55;;;19.60;60.60;;;;;;4965724;29;20114;-67
2022/10/17 08:43:09;;;;;;;1.88;1.70;;;19.60;60.60;;;;;;4965967;28;20019;-68
2022/10/17 08:45:59;;;;;;;1.70;1.58;;;19.60;60.60;;;;;;4965645;29;20023;-67
2022/10/17 08:48:27;;;;;;;1.65;1.55;;;19.60;60.60;;;;;;4965632;29;20066;-67
2022/10/17 08:51:00;;;;;;;1.30;1.20;;;19.60;60.70;;;;;;4965611;29;20023;-67
2022/10/17 08:53:40;;;;;;;1.67;1.40;;;19.60;60.60;;;;;;4965566;29;20030;-68
2022/10/17 08:56:25;;;;;;;1.70;1.42;;;19.60;60.60;;;;;;4965523;29;20062;-68
2022/10/17 08:58:51;;;;;;;1.40;1.30;;;19.60;60.60;;;;;;4965403;29;20215;-69
2022/10/17 09:01:40;;;;;;;1.50;1.40;;;19.60;60.70;;;;;;4965415;29;20018;-69
2022/10/17 09:04:35;;;;;;;1.42;1.30;;;19.60;60.60;;;;;;4965396;29;20085;-67
2022/10/17 09:07:21;;;;;;;1.33;1.23;;;19.60;60.70;;;;;;4965407;29;20082;-68
2022/10/17 09:10:03;;;;;;;1.52;1.35;;;19.60;60.70;;;;;;4965352;29;20082;-68
2022/10/17 09:12:39;;;;;;;1.88;1.50;;;19.70;60.70;;;;;;4965628;28;20026;-67
2022/10/17 09:15:32;;;;;;;1.67;1.42;;;19.70;60.70;;;;;;4965277;29;20333;-68
2022/10/17 09:18:20;;;;;;;1.50;1.40;;;19.70;60.80;;;;;;4965189;29;20034;-67
2022/10/17 09:20:58;;;;;;;1.27;1.17;;;19.70;60.70;;;;;;4965265;29;20019;-67
2022/10/17 09:23:25;;;;;;;1.30;1.20;;;19.70;60.70;;;;;;4965265;29;20086;-67
2022/10/17 09:25:57;;;;;;;1.55;1.45;;;19.70;60.80;;;;;;4965214;29;20023;-68
2022/10/17 09:28:38;;;;;;;1.35;1.25;;;19.70;60.70;;;;;;4965117;28;20135;-67
2022/10/17 09:31:25;;;;;;;1.50;1.40;;;19.70;60.70;;;;;;4969146;29;20322;-67
2022/10/17 09:33:55;;;;;;;1.45;1.35;;;19.70;60.80;;;;;;4969023;28;20307;-67
2022/10/17 09:36:26;;;;;;;1.48;1.38;;;19.70;61.40;;;;;;4968818;29;20373;-67
2022/10/17 09:39:01;;;;;;;1.35;1.17;;;19.70;60.80;;;;;;4968905;28;20043;-67
2022/10/17 09:41:43;;;;;;;1.40;1.30;;;19.70;60.80;;;;;;4968966;29;20266;-67
2022/10/17 09:44:21;;;;;;;1.92;1.73;;;19.70;60.80;;;;;;4968932;28;20011;-67
2022/10/17 09:47:08;;;;;;;1.58;1.40;;;19.70;60.70;;;;;;4968879;29;20035;-67
2022/10/17 09:49:37;;;;;;;1.52;1.42;;;19.70;60.70;;;;;;4968824;28;20019;-69
2022/10/17 09:52:24;;;;;;;2.08;1.88;;;19.70;60.80;;;;;;4968782;29;20023;-68
2022/10/17 09:55:05;;;;;;;1.33;1.23;;;19.70;60.80;;;;;;4968635;28;20035;-68
2022/10/17 09:57:55;;;;;;;1.40;1.30;;;19.80;60.80;;;;;;4968638;28;20066;-67
2022/10/17 10:00:43;;;;;;;1.42;1.15;;;19.80;60.80;;;;;;4968693;29;20219;-68
2022/10/17 10:03:12;;;;;;;1.73;1.48;;;19.80;60.80;;;;;;4967169;29;20027;-68
2022/10/17 10:05:38;;;;;;;1.60;1.30;;;19.80;60.80;;;;;;4968492;28;20019;-68
2022/10/17 10:08:14;;;;;;;1.63;1.52;;;19.80;60.80;;;;;;4968475;29;20031;-68
2022/10/17 10:10:42;;;;;;;1.48;1.35;;;19.80;61.50;;;;;;4968434;28;20370;-69
2022/10/17 10:13:13;;;;;;;1.50;1.40;;;19.80;60.80;;;;;;4968390;28;20108;-68
2022/10/17 10:15:48;;;;;;;1.50;1.40;;;19.80;60.80;;;;;;4968364;28;20027;-69
2022/10/17 10:18:34;;;;;;;1.88;1.58;;;19.80;60.70;;;;;;4968199;29;20311;-69
2022/10/17 10:21:11;;;;;;;1.58;1.40;;;19.80;60.70;;;;;;4968263;29;20307;-69
2022/10/17 10:23:39;;;;;;;1.17;1.08;;;19.80;60.70;;;;;;4968195;29;20039;-68
2022/10/17 10:26:32;;;;;;;1.50;1.40;;;19.90;60.80;;;;;;4968205;28;20025;-69
2022/10/17 10:29:21;;;;;;;1.42;1.33;;;19.90;60.80;;;;;;4970791;28;20078;-68
2022/10/17 10:31:47;;;;;;;1.27;1.17;;;19.90;60.80;;;;;;4967956;29;20086;-69
2022/10/17 10:34:26;;;;;;;1.40;1.30;;;19.90;60.80;;;;;;4967980;29;20034;-68
2022/10/17 10:36:58;;;;;;;1.58;1.35;;;19.90;60.70;;;;;;4967899;28;20062;-68
2022/10/17 10:39:40;;;;;;;1.40;1.27;;;19.90;60.80;;;;;;4967916;28;20098;-67
2022/10/17 10:42:17;;;;;;;1.48;1.38;;;19.90;60.80;;;;;;4966762;28;20019;-67
2022/10/17 10:44:43;;;;;;;1.67;1.58;;;19.90;60.80;;;;;;4967864;29;20207;-67
2022/10/17 10:47:28;;;;;;;1.60;1.50;;;19.90;60.80;;;;;;4967785;29;20020;-67
2022/10/17 10:50:42;;;;;;;1.35;1.25;;;19.90;60.70;;;;;;4967753;29;20019;-68
2022/10/17 10:53:46;;;;;;;1.63;1.52;;;19.90;60.70;;;;;;4975450;28;20334;-68
2022/10/17 10:56:33;;;;;;;1.55;1.33;;;20.00;60.80;;;;;;4967609;29;20041;-67
2022/10/17 10:59:08;;;;;;;1.67;1.57;;;19.90;60.80;;;;;;4967540;29;20023;-69
2022/10/17 11:02:01;;;;;;;1.73;1.63;;;20.00;60.80;;;;;;4967500;29;20038;-67
2022/10/17 11:04:41;;;;;;;1.52;1.42;;;20.00;60.80;;;;;;4967315;28;20093;-68
2022/10/17 11:07:12;;;;;;;1.30;1.20;;;20.00;60.80;;;;;;4967420;29;20023;-68
2022/10/17 11:10:09;;;;;;;1.65;1.50;;;20.00;60.80;;;;;;4967367;29;20034;-67
2022/10/17 11:12:42;;;;;;;1.60;1.47;;;20.00;60.70;;;;;;4967367;29;20019;-67
2022/10/17 11:15:24;;;;;;;1.63;1.50;;;20.00;60.70;;;;;;4967249;29;20257;-67
2022/10/17 11:17:59;;;;;;;1.55;1.45;;;20.00;60.70;;;;;;4967223;28;20378;-67
2022/10/17 11:20:43;;;;;;;1.73;1.58;;;20.00;60.70;;;;;;4967214;28;20061;-67
2022/10/17 11:23:18;;;;;;;1.42;1.33;;;20.00;60.60;;;;;;4967141;29;20313;-68
2022/10/17 11:25:45;;;;;;;1.35;1.23;;;20.10;60.70;;;;;;4967121;28;20035;-68
2022/10/17 11:28:16;;;;;;;1.55;1.35;;;20.10;60.70;;;;;;4967042;28;20023;-68
2022/10/17 11:30:59;;;;;;;1.55;1.40;;;20.10;60.70;;;;;;4967000;29;20024;-67
2022/10/17 11:33:51;;;;;;;1.23;1.13;;;20.10;60.70;;;;;;4966980;28;20031;-68
2022/10/17 11:36:20;;;;;;;1.50;1.40;;;20.10;60.70;;;;;;4966687;29;20046;-68
2022/10/17 11:38:57;;;;;;;2.55;1.48;;;20.10;60.70;;;;;;4966726;29;20345;-68
2022/10/17 11:41:42;;;;;;;1.73;1.27;;;20.10;60.60;;;;;;4966808;29;20311;-68
2022/10/17 11:44:22;;;;;;;2.05;1.60;;;20.10;60.70;;;;;;4966757;29;20027;-68
2022/10/17 11:47:14;;;;;;;1.50;1.40;;;20.10;60.60;;;;;;4966750;28;20023;-68
2022/10/17 11:49:48;;;;;;;1.30;1.13;;;20.20;60.60;;;;;;4968607;28;20090;-68
2022/10/17 11:52:26;;;;;;;1.60;1.50;;;20.20;60.70;;;;;;4965953;28;20444;-68
2022/10/17 11:54:56;;;;;;;1.70;1.60;;;20.20;60.60;;;;;;4966462;29;20098;-68
2022/10/17 11:57:25;;;;;;;2.00;1.80;;;20.20;60.60;;;;;;4966426;29;20026;-68
2022/10/17 12:00:32;;;;;;;1.17;1.08;;;20.20;60.60;;;;;;4966464;29;20020;-68
2022/10/17 12:03:19;;;;;;;1.43;1.33;;;20.20;60.60;;;;;;4983804;28;20033;-67
2022/10/17 12:05:54;;;;;;;1.38;1.27;;;20.20;60.60;;;;;;4965402;29;20113;-67
2022/10/17 12:08:43;;;;;;;1.70;1.60;;;20.20;60.60;;;;;;4966363;28;20041;-68
2022/10/17 12:11:39;;;;;;;1.55;1.45;;;20.20;60.60;;;;;;4966285;28;20019;-68
2022/10/17 12:14:40;;;;;;;1.40;1.30;;;20.20;60.60;;;;;;4966257;28;20023;-69
2022/10/17 12:17:31;;;;;;;1.35;1.23;;;20.30;60.60;;;;;;4966145;28;20066;-68
2022/10/17 12:20:19;;;;;;;1.35;1.25;;;20.30;60.60;;;;;;4966121;28;20059;-68
2022/10/17 12:22:56;;;;;;;2.07;1.80;;;20.30;60.60;;;;;;4966014;29;20019;-67
2022/10/17 12:25:22;;;;;;;1.40;1.25;;;20.30;60.60;;;;;;4966016;29;20233;-68
2022/10/17 12:27:50;;;;;;;2.40;1.40;;;20.30;60.50;;;;;;4965882;28;20034;-68
2022/10/17 12:30:18;;;;;;;1.30;1.20;;;20.30;60.50;;;;;;4965895;29;20023;-68
2022/10/17 12:33:03;;;;;;;;;;;20.40;60.50;;;;;;4966285;29;20030;-68
2022/10/17 12:35:30;;;;;;;1.67;1.48;;;20.30;60.40;;;;;;4965682;28;19910;-68
2022/10/17 12:38:01;;;;;;;1.42;1.33;;;20.30;60.50;;;;;;4965750;28;20090;-68
2022/10/17 12:40:35;;;;;;;1.60;1.10;;;20.40;60.40;;;;;;4965739;29;20027;-67
2022/10/17 12:43:14;;;;;;;1.58;1.48;;;20.50;60.30;;;;;;4964586;28;20019;-68
2022/10/17 12:45:57;;;;;;;1.65;1.42;;;20.50;60.10;;;;;;4965726;28;20034;-68
2022/10/17 12:48:38;;;;;;;1.73;1.40;;;20.60;59.90;;;;;;4965677;29;20029;-67
2022/10/17 12:51:12;;;;;;;1.60;1.50;;;20.70;59.70;;;;;;4965600;29;20027;-67
2022/10/17 12:53:57;;;;;;;1.40;1.30;;;20.70;59.50;;;;;;4965565;29;20022;-68
2022/10/17 12:56:49;;;;;;;1.30;1.20;;;20.90;59.30;;;;;;4965540;29;20027;-68
2022/10/17 12:59:15;;;;;;;1.38;1.27;;;20.90;59.00;;;;;;4965982;28;20039;-68
2022/10/17 13:01:45;;;;;;;1.17;1.15;;;21.00;58.90;;;;;;4965442;29;20038;-67
2022/10/17 13:04:11;;;;;;;1.45;1.35;;;21.10;58.70;;;;;;4965057;29;20015;-68
2022/10/17 13:06:48;;;;;;;1.80;1.70;;;21.10;58.60;;;;;;4965395;29;20086;-68
2022/10/17 13:09:28;;;;;;;2.22;1.75;;;21.20;58.50;;;;;;4964249;29;20019;-68
2022/10/17 13:12:01;;;;;;;1.50;1.40;;;21.20;58.30;;;;;;4965377;28;20034;-68
2022/10/17 13:14:28;;;;;;;1.50;1.27;;;21.20;58.30;;;;;;4965326;29;20310;-68
2022/10/17 13:16:59;;;;;;;1.15;1.10;;;21.30;58.20;;;;;;4965280;29;20031;-68